Pray, MT

12:43 AM MDT on July 27, 2016 (GMT -0600)
Paradise Valley | | Change Station

Elev 4970 ft 45.42 °N, 110.71 °W | Updated 6 minutes ago

Clear
Clear
63.9 °F
Feels Like 63.9 °F
N
4.7
Wind Variable Wind from NNE

Today
High -- | Low -- °F
--% Chance of Precip.
Yesterday
High -- | Low -- °F
Precip. -- in
Pressure 30.01 in
Visibility 9.0 miles
Clouds Clear
Dew Point 46 °F
Humidity 53%
Rainfall 0.00 in
Snow Depth Not available.
6:01 AM 8:55 PM
Last Quarter, 46% visible
METAR KLVM 270553Z AUTO 25007KT 9SM CLR 19/08 A3016 RMK AO2 SLP160 60000 T01890083 10283 20189 50016
Pressure 30.01 in
Visibility 9.0 miles
Clouds Clear
Dew Point 46 °F
Humidity 53%
Rainfall 0.00 in
Snow Depth Not available.
6:01 AM 8:55 PM
Last Quarter, 46% visible
METAR KLVM 270553Z AUTO 25007KT 9SM CLR 19/08 A3016 RMK AO2 SLP160 60000 T01890083 10283 20189 50016

10-Day Weather Forecast

Almanac

Astronomy

Jul. 27, 2016 Rise Set
Actual Time
Civil Twilight
Nautical Twilight
Astronomical Twilight
Moon
Length of Visible Light
Length of Day
Tomorrow will be .
, % of the Moon is Illuminated

Today's Extremes

State Highs State Lows

Community

WunderPhotos

Upload Photos

1,927,818 photos uploaded!

WunderBlog® & News

Nearby

Air Quality

  Air Quality AQ Index Pollutant
Not available.

Snow Depth

Station Depth Elevation

Earthquake Activity

City Distance Mag. Time & Date
Minimum magnitude displayed is 2.5.

Coastal Water Temperatures

Place Temperature

Stations

Nearby Weather Stations

Station Location Temp. Windchill Dew Point Humidity Wind Precip. Elev Updated Type
                   

Watches & Warnings

There are currently no watches in effect.